Time;durP1;ratioP1;P1;durP2;ratioP2;P2;SDS_P1;SDS_P2;PMS_P1;PMS_P2;Temp;Humidity;BMP_temperature;BMP_pressure;BME280_temperature;BME280_humidity;BME280_pressure;Samples;Min_cycle;Max_cycle;Signal;HPM_P1;HPM_P2
2021/10/02 00:46:08;;;;;;;13.07;7.13;;;13.00;99.90;;;;;;6122868;29;20039;-81
2021/10/02 00:49:09;;;;;;;9.98;6.75;;;12.90;99.90;;;;;;6101738;29;20047;-82
2021/10/02 00:52:11;;;;;;;9.52;7.10;;;12.80;99.90;;;;;;6101856;29;20063;-83
2021/10/02 00:55:12;;;;;;;12.52;7.55;;;12.90;99.90;;;;;;6133250;29;20050;-81
2021/10/02 00:58:13;;;;;;;9.38;6.68;;;12.70;99.90;;;;;;6101804;29;20425;-81
2021/10/02 01:01:21;;;;;;;7.90;6.93;;;12.70;99.90;;;;;;6117616;29;20074;-82
2021/10/02 01:04:55;;;;;;;10.20;7.10;;;12.70;99.90;;;;;;6117379;29;20039;-81
2021/10/02 01:08:14;;;;;;;7.50;6.65;;;12.70;99.90;;;;;;6104380;29;20050;-82
2021/10/02 01:11:36;;;;;;;11.30;6.60;;;12.50;99.90;;;;;;6132950;29;20027;-82
2021/10/02 01:14:48;;;;;;;9.07;6.82;;;12.60;99.90;;;;;;6133139;29;20125;-81
2021/10/02 01:17:54;;;;;;;8.07;6.63;;;12.50;99.90;;;;;;6150259;29;20114;-81
2021/10/02 01:21:22;;;;;;;8.43;6.28;;;12.60;99.90;;;;;;6117416;29;20027;-83
2021/10/02 01:25:07;;;;;;;9.02;7.00;;;12.60;99.90;;;;;;6132686;29;20405;-81
2021/10/02 01:28:11;;;;;;;9.13;6.55;;;12.70;99.90;;;;;;6117721;29;20043;-81
2021/10/02 01:31:22;;;;;;;7.25;6.43;;;12.60;99.90;;;;;;6117377;29;20037;-82
2021/10/02 01:34:34;;;;;;;7.80;6.05;;;12.70;99.90;;;;;;6119365;28;20055;-81
2021/10/02 01:47:37;;;;;;;6.85;5.15;;;12.60;99.90;;;;;;6121377;29;20553;-81
2021/10/02 01:50:38;;;;;;;7.95;5.45;;;12.50;99.90;;;;;;6101122;29;20381;-81
2021/10/02 01:53:39;;;;;;;7.85;6.72;;;12.60;99.90;;;;;;6116008;29;20034;-81
2021/10/02 01:56:41;;;;;;;8.98;4.78;;;12.60;99.90;;;;;;6132047;29;20039;-82
2021/10/02 01:59:42;;;;;;;5.00;4.30;;;12.50;99.90;;;;;;6099753;29;20417;-83
2021/10/02 02:02:46;;;;;;;5.90;4.22;;;12.50;99.90;;;;;;6116487;29;20035;-82
2021/10/02 02:05:46;;;;;;;5.00;4.10;;;12.40;99.90;;;;;;6100454;29;20059;-84
2021/10/02 02:08:47;;;;;;;4.78;3.50;;;12.20;99.90;;;;;;6116501;29;20093;-82
2021/10/02 02:11:48;;;;;;;4.15;3.38;;;12.00;99.90;;;;;;6100271;29;20465;-83
2021/10/02 02:14:50;;;;;;;4.07;3.13;;;12.20;99.90;;;;;;6116169;29;20023;-81
2021/10/02 02:17:52;;;;;;;6.78;3.55;;;12.90;99.90;;;;;;6100396;29;20053;-84
2021/10/02 02:21:09;;;;;;;5.60;3.25;;;12.30;99.90;;;;;;6099807;29;20385;-81
2021/10/02 02:24:10;;;;;;;6.10;3.42;;;12.60;99.90;;;;;;6116052;29;20039;-83
2021/10/02 02:27:10;;;;;;;6.35;3.47;;;12.40;99.90;;;;;;6115084;29;20138;-83
2021/10/02 02:30:11;;;;;;;3.45;2.92;;;12.10;99.90;;;;;;6115228;29;20036;-83
2021/10/02 02:33:13;;;;;;;4.97;4.10;;;12.30;99.90;;;;;;6099640;29;20019;-81
2021/10/02 02:36:14;;;;;;;5.88;3.88;;;12.40;99.90;;;;;;6099699;29;20027;-82
2021/10/02 02:39:14;;;;;;;7.32;4.43;;;12.20;99.90;;;;;;6099246;29;20035;-82
2021/10/02 02:42:15;;;;;;;4.35;3.20;;;12.20;99.90;;;;;;6115374;29;20431;-84
2021/10/02 02:45:16;;;;;;;5.93;3.15;;;12.30;99.90;;;;;;6099262;28;20038;-82
2021/10/02 02:48:24;;;;;;;4.90;3.35;;;12.00;99.90;;;;;;6114834;29;20106;-82
2021/10/02 02:52:01;;;;;;;5.47;3.63;;;12.20;99.90;;;;;;6115419;29;20062;-81
2021/10/02 02:55:05;;;;;;;5.78;4.15;;;12.10;99.90;;;;;;6130853;29;20030;-82
2021/10/02 02:58:06;;;;;;;5.35;4.28;;;12.30;99.90;;;;;;6099182;29;20122;-83
2021/10/02 03:01:07;;;;;;;5.63;4.45;;;12.20;99.90;;;;;;6098981;29;20037;-82
2021/10/02 03:04:11;;;;;;;6.47;4.07;;;12.00;99.90;;;;;;6114604;29;20134;-82
2021/10/02 03:07:12;;;;;;;5.78;3.88;;;11.90;99.90;;;;;;6098971;29;20059;-82
2021/10/02 03:10:13;;;;;;;5.50;4.15;;;;;;;;;;6130406;29;20031;-81
2021/10/02 03:13:15;;;;;;;6.30;3.72;;;11.90;99.90;;;;;;6130400;29;20023;-81
2021/10/02 03:16:15;;;;;;;5.18;4.40;;;12.10;99.90;;;;;;6114553;29;20045;-82
2021/10/02 03:19:16;;;;;;;6.70;3.83;;;11.90;99.90;;;;;;6114575;29;20031;-83
2021/10/02 03:22:16;;;;;;;5.05;3.78;;;11.90;99.90;;;;;;6114440;29;20042;-84
2021/10/02 03:25:17;;;;;;;5.28;3.78;;;12.00;99.90;;;;;;6113984;29;20142;-82
2021/10/02 03:28:18;;;;;;;15.15;9.90;;;11.90;99.90;;;;;;6114565;29;20053;-82
2021/10/02 03:31:18;;;;;;;11.45;7.47;;;12.00;99.90;;;;;;6113853;29;20043;-83
2021/10/02 03:34:19;;;;;;;6.38;4.13;;;12.00;99.90;;;;;;6113928;29;20354;-81
2021/10/02 03:37:20;;;;;;;8.40;6.05;;;11.90;99.90;;;;;;6098037;29;20047;-82
2021/10/02 03:40:21;;;;;;;8.40;5.30;;;11.90;99.90;;;;;;6098374;29;20035;-83
2021/10/02 03:43:21;;;;;;;6.97;4.30;;;12.00;99.90;;;;;;6130037;29;20035;-82
2021/10/02 03:46:22;;;;;;;5.70;3.67;;;12.00;99.90;;;;;;6098585;29;20031;-81
2021/10/02 03:49:22;;;;;;;4.20;3.80;;;12.30;99.90;;;;;;6130277;29;20146;-82
2021/10/02 03:52:23;;;;;;;5.60;3.50;;;11.90;99.90;;;;;;6113564;29;20042;-81
2021/10/02 03:55:23;;;;;;;4.40;3.85;;;11.90;99.90;;;;;;6129573;29;20050;-81
2021/10/02 03:58:24;;;;;;;4.95;3.83;;;11.80;99.90;;;;;;6097508;29;20086;-82
2021/10/02 04:01:25;;;;;;;5.38;3.88;;;11.80;99.90;;;;;;6114458;29;20031;-83
2021/10/02 04:04:25;;;;;;;4.60;3.70;;;11.60;99.90;;;;;;6113317;29;20359;-83
2021/10/02 04:07:26;;;;;;;4.80;3.22;;;11.60;99.90;;;;;;6097851;29;20046;-82
2021/10/02 04:10:27;;;;;;;5.18;4.60;;;11.70;99.90;;;;;;6113777;29;20069;-84
2021/10/02 04:13:27;;;;;;;9.02;3.90;;;11.60;99.90;;;;;;6113626;29;20119;-82
2021/10/02 04:16:29;;;;;;;5.55;3.90;;;;;;;;;;6113550;29;20483;-82
2021/10/02 04:19:29;;;;;;;5.78;3.40;;;11.60;99.90;;;;;;6129686;29;20019;-84
2021/10/02 04:22:30;;;;;;;4.72;3.20;;;11.50;99.90;;;;;;6097808;29;20055;-81
2021/10/02 04:25:32;;;;;;;6.63;3.53;;;11.50;99.90;;;;;;6113442;29;20047;-80
2021/10/02 04:28:32;;;;;;;5.70;3.60;;;11.50;99.90;;;;;;6113857;29;20027;-82
2021/10/02 04:31:33;;;;;;;3.17;2.80;;;11.70;99.90;;;;;;6113239;29;20039;-83
2021/10/02 04:34:33;;;;;;;4.32;2.90;;;11.40;99.90;;;;;;6113349;29;20031;-81
2021/10/02 04:37:34;;;;;;;5.47;3.40;;;11.40;99.90;;;;;;6113175;29;20569;-81
2021/10/02 04:40:35;;;;;;;8.18;5.07;;;;;;;;;;6097361;29;20652;-81
2021/10/02 04:43:40;;;;;;;6.22;4.10;;;11.30;99.90;;;;;;6129309;29;20022;-81
2021/10/02 04:46:41;;;;;;;6.03;3.97;;;11.30;99.90;;;;;;6113915;29;20035;-81
2021/10/02 04:49:42;;;;;;;4.75;3.85;;;11.20;99.90;;;;;;6113722;29;20034;-82
2021/10/02 04:52:43;;;;;;;7.25;4.32;;;;;;;;;;6113073;29;20113;-82
2021/10/02 04:55:43;;;;;;;3.83;3.00;;;11.10;99.90;;;;;;6146258;29;20433;-83
2021/10/02 04:58:44;;;;;;;4.65;4.18;;;11.10;99.90;;;;;;6113233;29;20030;-81
2021/10/02 05:01:44;;;;;;;4.80;3.60;;;11.00;99.90;;;;;;6113098;29;20054;-82
2021/10/02 05:04:45;;;;;;;4.65;3.22;;;10.90;99.90;;;;;;6112606;29;20050;-81
2021/10/02 05:07:46;;;;;;;5.97;3.13;;;11.00;99.90;;;;;;6113152;29;20027;-82
2021/10/02 05:10:46;;;;;;;4.78;3.05;;;10.90;99.90;;;;;;6100079;29;20468;-83
2021/10/02 05:13:47;;;;;;;5.55;3.28;;;10.90;99.90;;;;;;6101451;29;20090;-81
2021/10/02 05:16:47;;;;;;;4.70;3.50;;;10.80;99.90;;;;;;6117096;29;20066;-83
2021/10/02 05:19:48;;;;;;;6.38;3.55;;;10.80;99.90;;;;;;6117158;29;20351;-81
2021/10/02 05:22:49;;;;;;;6.47;4.68;;;10.80;99.90;;;;;;6101556;29;20035;-81
2021/10/02 05:25:49;;;;;;;8.77;4.80;;;10.60;99.90;;;;;;6130457;29;20145;-82
2021/10/02 05:28:50;;;;;;;5.75;3.70;;;10.80;99.90;;;;;;6149188;29;20027;-81
2021/10/02 05:31:50;;;;;;;3.92;2.80;;;10.70;99.90;;;;;;6116825;29;20035;-81
2021/10/02 05:34:51;;;;;;;3.15;2.60;;;10.70;99.90;;;;;;6116896;29;20106;-81
2021/10/02 05:37:52;;;;;;;4.85;3.85;;;11.00;99.90;;;;;;6116720;29;20048;-83
2021/10/02 05:40:52;;;;;;;3.25;2.92;;;10.90;99.90;;;;;;6132951;29;20078;-82
2021/10/02 05:43:53;;;;;;;13.70;8.15;;;10.80;99.90;;;;;;6116878;29;20031;-83
2021/10/02 05:46:53;;;;;;;4.97;3.35;;;10.80;99.90;;;;;;6114810;29;20031;-80
2021/10/02 05:49:54;;;;;;;6.05;3.40;;;10.80;99.90;;;;;;6131407;29;20039;-82
2021/10/02 05:52:54;;;;;;;4.80;3.90;;;11.00;99.90;;;;;;6116190;29;20032;-81
2021/10/02 05:55:55;;;;;;;5.18;3.30;;;10.80;99.90;;;;;;6115576;29;20114;-82
2021/10/02 05:58:56;;;;;;;6.40;4.15;;;10.90;99.90;;;;;;6100407;29;20035;-82
2021/10/02 06:01:56;;;;;;;5.20;3.22;;;10.90;99.90;;;;;;6100405;29;20031;-81
2021/10/02 06:04:57;;;;;;;4.30;3.25;;;11.60;99.90;;;;;;6115232;29;20039;-82
2021/10/02 06:07:57;;;;;;;3.35;2.78;;;11.80;99.90;;;;;;6115397;29;20059;-82
2021/10/02 06:10:58;;;;;;;3.28;2.65;;;11.50;99.90;;;;;;6148879;29;20488;-81
2021/10/02 06:13:59;;;;;;;6.60;3.13;;;11.60;99.90;;;;;;6130749;29;20443;-80
2021/10/02 06:16:59;;;;;;;3.78;3.00;;;11.20;99.90;;;;;;6116015;29;20384;-81
2021/10/02 06:20:00;;;;;;;6.18;3.83;;;11.40;99.90;;;;;;6115494;28;20055;-81
2021/10/02 06:23:03;;;;;;;4.57;3.40;;;11.30;99.90;;;;;;6115831;29;20027;-82
2021/10/02 06:26:05;;;;;;;3.47;3.10;;;;;;;;;;6115478;29;20101;-82
2021/10/02 06:29:06;;;;;;;3.80;3.28;;;11.20;99.90;;;;;;6146749;29;20027;-81
2021/10/02 06:32:07;;;;;;;4.32;2.67;;;11.20;99.90;;;;;;6115676;29;20035;-81
2021/10/02 06:35:08;;;;;;;4.18;3.03;;;11.60;99.90;;;;;;6114160;29;20119;-81
2021/10/02 06:38:08;;;;;;;5.28;3.90;;;11.60;99.90;;;;;;6114470;29;20390;-81
2021/10/02 06:41:09;;;;;;;7.03;4.15;;;;;;;;;;6099051;29;20078;-82
2021/10/02 06:44:11;;;;;;;4.35;3.10;;;;;;;;;;6131493;29;20041;-81
2021/10/02 06:47:11;;;;;;;5.35;3.47;;;12.00;99.90;;;;;;6149372;29;20027;-82
2021/10/02 06:50:12;;;;;;;6.10;3.90;;;12.20;99.90;;;;;;6115466;29;20042;-81
2021/10/02 06:53:12;;;;;;;3.97;3.30;;;12.50;99.90;;;;;;6115051;29;20039;-82
2021/10/02 06:56:13;;;;;;;5.32;3.17;;;12.40;99.90;;;;;;6130503;29;20101;-82
2021/10/02 06:59:14;;;;;;;4.03;2.60;;;12.10;99.90;;;;;;6114882;29;20069;-81
2021/10/02 07:02:14;;;;;;;3.15;2.83;;;12.10;99.90;;;;;;6131118;29;20027;-81
2021/10/02 07:05:15;;;;;;;5.50;3.55;;;12.20;99.90;;;;;;6130377;29;20050;-85
2021/10/02 07:08:16;;;;;;;7.32;3.50;;;12.50;99.90;;;;;;6114828;29;20109;-88
2021/10/02 07:11:16;;;;;;;6.47;3.47;;;13.20;99.90;;;;;;6099047;29;20019;-90
2021/10/02 07:14:17;;;;;;;7.82;5.07;;;14.10;99.90;;;;;;6099463;29;20031;-82
2021/10/02 07:17:18;;;;;;;10.07;6.10;;;;;;;;;;6110808;29;20378;-79
2021/10/02 07:20:22;;;;;;;7.13;4.60;;;;;;;;;;6113811;29;20027;-80
2021/10/02 07:23:24;;;;;;;7.18;3.55;;;16.30;99.90;;;;;;6129929;29;20043;-81
2021/10/02 07:26:25;;;;;;;8.45;6.45;;;16.80;99.90;;;;;;6112997;29;20047;-80
2021/10/02 07:29:25;;;;;;;9.25;5.65;;;17.70;99.90;;;;;;6129786;29;20066;-80
2021/10/02 07:32:26;;;;;;;7.75;4.30;;;17.60;99.90;;;;;;6113533;29;20043;-81
2021/10/02 07:35:27;;;;;;;6.72;4.60;;;17.70;99.90;;;;;;6113871;29;20106;-81
2021/10/02 07:38:27;;;;;;;6.97;5.20;;;17.80;99.90;;;;;;6113659;29;20462;-85
2021/10/02 07:41:28;;;;;;;8.30;5.97;;;18.10;99.90;;;;;;6095612;29;20086;-82
2021/10/02 07:44:29;;;;;;;13.70;9.02;;;18.20;99.90;;;;;;6113711;29;20024;-82
2021/10/02 07:47:30;;;;;;;35.07;18.73;;;19.00;99.90;;;;;;6114200;29;20027;-80
2021/10/02 07:50:31;;;;;;;7.50;5.57;;;19.40;99.40;;;;;;6114265;29;20472;-82
2021/10/02 07:53:32;;;;;;;5.95;4.80;;;19.00;99.90;;;;;;6113643;29;20031;-82
2021/10/02 07:56:35;;;;;;;6.22;4.35;;;19.30;96.70;;;;;;6113505;29;20027;-82
2021/10/02 07:59:37;;;;;;;10.55;6.65;;;19.00;96.90;;;;;;6113507;29;20524;-81
2021/10/02 08:02:38;;;;;;;7.90;3.65;;;;;;;;;;6110504;29;20125;-86
2021/10/02 08:05:38;;;;;;;12.57;7.72;;;19.80;94.90;;;;;;6113623;29;20030;-82
2021/10/02 08:08:39;;;;;;;19.08;9.20;;;20.60;95.60;;;;;;6111281;29;20050;-82
2021/10/02 08:11:40;;;;;;;7.65;3.50;;;20.90;93.50;;;;;;6112154;29;20046;-82
2021/10/02 08:14:41;;;;;;;4.25;2.90;;;21.50;92.30;;;;;;6111646;29;20031;-84
2021/10/02 08:17:42;;;;;;;5.55;3.00;;;21.80;91.60;;;;;;6096781;29;20569;-88
2021/10/02 08:20:46;;;;;;;3.20;2.42;;;22.20;91.20;;;;;;6102730;29;20034;-83
2021/10/02 08:23:47;;;;;;;5.78;3.92;;;22.30;87.90;;;;;;6104921;29;20035;-81
2021/10/02 08:26:50;;;;;;;4.25;3.17;;;22.70;87.30;;;;;;6100235;29;20122;-81
2021/10/02 08:29:51;;;;;;;26.30;16.73;;;23.20;84.70;;;;;;6111425;29;20406;-81
2021/10/02 08:32:51;;;;;;;3.85;2.40;;;23.60;81.40;;;;;;6097142;29;20027;-81
2021/10/02 08:35:52;;;;;;;5.15;3.65;;;24.10;79.20;;;;;;6097134;29;20042;-82
2021/10/02 08:38:53;;;;;;;4.07;3.13;;;24.60;78.60;;;;;;6097317;29;20031;-80
2021/10/02 08:42:00;;;;;;;4.30;3.28;;;25.00;75.10;;;;;;6097155;29;20075;-80
2021/10/02 08:45:01;;;;;;;4.63;2.42;;;25.20;73.50;;;;;;6102707;29;20035;-83
2021/10/02 08:48:02;;;;;;;5.20;2.60;;;25.60;73.50;;;;;;6116329;29;20042;-84
2021/10/02 08:51:03;;;;;;;4.63;2.57;;;26.20;72.80;;;;;;6116387;29;20063;-85
2021/10/02 08:54:04;;;;;;;5.95;3.08;;;26.90;70.20;;;;;;6117315;29;20034;-84
2021/10/02 08:57:08;;;;;;;5.20;3.10;;;27.30;69.80;;;;;;6117643;29;20469;-83
2021/10/02 09:00:11;;;;;;;5.80;3.58;;;27.20;78.30;;;;;;6101763;29;20031;-84
2021/10/02 09:03:12;;;;;;;4.38;2.88;;;27.20;64.10;;;;;;6116243;29;20103;-84
2021/10/02 09:06:13;;;;;;;5.33;3.47;;;27.70;63.90;;;;;;6101701;29;20027;-83
2021/10/02 09:09:16;;;;;;;4.78;3.05;;;27.80;89.50;;;;;;6100869;29;20067;-83
2021/10/02 09:12:21;;;;;;;3.92;3.10;;;27.70;63.20;;;;;;6100265;29;20039;-82
2021/10/02 09:15:21;;;;;;;3.70;2.88;;;27.50;90.10;;;;;;6118413;29;20024;-82
2021/10/02 09:18:24;;;;;;;2.87;2.60;;;27.60;89.50;;;;;;6116942;29;20389;-81
2021/10/02 09:21:24;;;;;;;9.15;2.95;;;27.70;76.40;;;;;;6101444;29;20035;-84
2021/10/02 09:24:27;;;;;;;6.60;3.23;;;27.50;90.70;;;;;;6117334;29;20538;-85
2021/10/02 09:27:30;;;;;;;6.22;2.90;;;27.30;71.40;;;;;;6116975;29;20070;-85
2021/10/02 09:30:31;;;;;;;5.05;3.55;;;;;;;;;;6115699;29;20365;-84
2021/10/02 09:33:32;;;;;;;3.60;3.03;;;;;;;;;;6116156;29;20058;-87
2021/10/02 09:36:34;;;;;;;5.85;3.28;;;26.90;91.50;;;;;;6117037;29;20275;-84
2021/10/02 09:39:41;;;;;;;4.70;3.50;;;27.60;72.80;;;;;;6115621;29;20039;-89
2021/10/02 09:42:44;;;;;;;5.97;3.65;;;27.80;76.70;;;;;;6117161;29;20101;-84
2021/10/02 09:49:57;;;;;;;4.70;3.20;;;28.00;88.00;;;;;;6148376;29;20031;-87
2021/10/02 09:53:05;;;;;;;4.50;2.83;;;27.80;90.40;;;;;;6100706;29;20035;-84
2021/10/02 09:56:09;;;;;;;6.20;3.08;;;28.00;78.40;;;;;;6100758;29;20522;-86
2021/10/02 09:59:23;;;;;;;4.65;3.35;;;28.20;90.00;;;;;;6114819;29;20027;-85
2021/10/02 10:02:29;;;;;;;12.43;3.55;;;;;;;;;;6117572;29;20038;-87
2021/10/02 10:05:35;;;;;;;7.22;3.70;;;28.10;89.70;;;;;;6117515;29;20473;-87
2021/10/02 10:08:38;;;;;;;4.03;3.03;;;;;;;;;;6117819;29;20041;-87
2021/10/02 10:11:46;;;;;;;21.75;4.50;;;27.90;69.10;;;;;;6115932;29;20441;-84
2021/10/02 10:14:47;;;;;;;6.90;3.50;;;;;;;;;;6128922;29;20470;-87
2021/10/02 10:17:49;;;;;;;8.23;3.20;;;;;;;;;;6114874;29;20059;-85
2021/10/02 10:21:29;;;;;;;7.93;3.40;;;28.10;61.40;;;;;;6116207;29;20081;-88
2021/10/02 10:25:08;;;;;;;5.40;3.75;;;27.60;72.30;;;;;;6075604;29;20383;-90
2021/10/02 10:28:10;;;;;;;5.03;3.17;;;;;;;;;;5995619;29;20079;-86
2021/10/02 10:31:13;;;;;;;4.72;3.53;;;27.10;62.40;;;;;;5987158;29;20409;-90
2021/10/02 10:34:14;;;;;;;6.95;3.60;;;;;;;;;;6021697;29;20026;-88
2021/10/02 10:37:18;;;;;;;4.72;3.53;;;26.60;68.60;;;;;;5989970;29;20235;-85
2021/10/02 10:40:19;;;;;;;3.92;2.65;;;;;;;;;;5989898;29;20033;-88
2021/10/02 10:43:23;;;;;;;9.45;3.80;;;26.00;90.50;;;;;;6005991;29;20045;-88
2021/10/02 10:46:24;;;;;;;5.13;3.30;;;25.90;72.20;;;;;;6003191;29;20045;-87
2021/10/02 10:49:25;;;;;;;3.97;2.90;;;;;;;;;;6004002;29;20041;-88
2021/10/02 10:52:34;;;;;;;9.43;3.70;;;26.50;70.60;;;;;;6043338;29;20111;-88
2021/10/02 10:55:52;;;;;;;6.80;3.42;;;27.00;83.40;;;;;;6042836;29;20031;-88
2021/10/02 10:59:02;;;;;;;7.22;3.40;;;27.00;68.20;;;;;;6049170;29;20500;-88
2021/10/02 11:02:03;;;;;;;7.03;3.65;;;27.00;87.70;;;;;;6048990;29;20491;-88
2021/10/02 11:05:04;;;;;;;4.63;3.35;;;;;;;;;;6104744;29;20031;-87
2021/10/02 11:08:10;;;;;;;7.30;3.38;;;27.10;69.20;;;;;;6114204;29;20035;-84
2021/10/02 11:11:10;;;;;;;4.43;3.10;;;27.20;64.30;;;;;;6115609;29;20023;-85
2021/10/02 11:14:15;;;;;;;6.03;3.73;;;27.30;64.70;;;;;;6098589;29;20070;-86
2021/10/02 11:17:36;;;;;;;13.00;3.95;;;27.40;61.50;;;;;;6114792;29;20031;-88
2021/10/02 11:20:38;;;;;;;4.13;3.20;;;27.20;63.80;;;;;;6117074;29;20050;-87
2021/10/02 11:23:41;;;;;;;4.50;4.07;;;27.10;64.70;;;;;;6114691;29;20047;-84
2021/10/02 11:26:43;;;;;;;4.10;3.58;;;26.80;64.60;;;;;;6130551;29;20047;-87
2021/10/02 11:29:46;;;;;;;4.90;3.72;;;26.50;64.80;;;;;;6115458;29;20062;-87
2021/10/02 11:32:47;;;;;;;3.70;3.35;;;26.10;67.00;;;;;;6100004;29;20039;-87
2021/10/02 11:35:51;;;;;;;8.23;3.80;;;26.00;66.80;;;;;;6100595;29;20042;-87
2021/10/02 11:39:26;;;;;;;6.05;3.33;;;25.90;69.90;;;;;;6114491;29;20135;-89
2021/10/02 11:43:05;;;;;;;5.97;3.75;;;25.80;68.50;;;;;;6131153;29;20027;-91
2021/10/02 11:50:12;;;;;;;7.05;4.18;;;24.70;79.10;;;;;;6102612;29;20047;-85
2021/10/02 11:53:13;;;;;;;4.78;3.63;;;;;;;;;;6129855;29;20113;-89
2021/10/02 11:56:19;;;;;;;4.50;3.90;;;24.50;69.40;;;;;;6131638;29;20433;-87
2021/10/02 11:59:23;;;;;;;4.05;3.45;;;24.50;71.50;;;;;;6099590;29;20661;-87
2021/10/02 12:02:24;;;;;;;4.13;3.55;;;24.30;73.10;;;;;;6114073;29;20890;-87
2021/10/02 12:05:25;;;;;;;4.63;3.83;;;;;;;;;;6115215;29;20122;-87
2021/10/02 12:08:26;;;;;;;9.55;6.75;;;24.30;71.50;;;;;;6114305;29;20042;-87
2021/10/02 12:11:28;;;;;;;12.87;5.77;;;;;;;;;;6114020;29;20073;-88
2021/10/02 12:14:29;;;;;;;16.23;10.88;;;24.80;71.20;;;;;;6113538;29;20055;-87
2021/10/02 12:17:30;;;;;;;5.20;4.00;;;25.10;72.50;;;;;;6114273;29;20519;-87
2021/10/02 12:20:38;;;;;;;5.40;4.00;;;25.30;70.90;;;;;;6105425;29;20514;-89
2021/10/02 12:23:59;;;;;;;5.28;4.07;;;25.30;70.80;;;;;;6122703;29;20050;-88
2021/10/02 12:27:20;;;;;;;4.88;3.70;;;25.30;68.30;;;;;;6110398;29;20150;-88
2021/10/02 12:30:20;;;;;;;5.55;4.10;;;26.10;69.30;;;;;;6112677;29;20020;-83
2021/10/02 12:33:22;;;;;;;9.80;4.40;;;25.20;68.10;;;;;;6099437;29;20086;-84
2021/10/02 12:36:43;;;;;;;6.80;3.83;;;25.30;68.60;;;;;;6112189;29;20024;-84
2021/10/02 12:39:53;;;;;;;7.45;4.35;;;25.10;66.30;;;;;;6097537;29;20160;-86
2021/10/02 12:42:56;;;;;;;4.40;3.65;;;25.00;68.50;;;;;;6099213;29;20043;-87
2021/10/02 12:45:57;;;;;;;7.22;4.03;;;24.80;68.00;;;;;;6115169;28;20062;-84
2021/10/02 12:48:57;;;;;;;5.80;4.10;;;24.80;69.30;;;;;;6117127;29;20035;-85
2021/10/02 12:51:59;;;;;;;4.20;3.70;;;24.80;69.80;;;;;;6121396;29;20028;-87
2021/10/02 12:55:00;;;;;;;10.18;4.25;;;;;;;;;;6104366;29;20035;-85
2021/10/02 12:58:01;;;;;;;5.93;4.72;;;24.90;69.60;;;;;;6121021;28;20027;-85
2021/10/02 13:01:02;;;;;;;5.13;4.40;;;24.90;69.10;;;;;;6106614;29;20059;-86
2021/10/02 13:04:02;;;;;;;5.00;4.37;;;25.20;70.80;;;;;;6105095;28;20055;-83
2021/10/02 13:07:03;;;;;;;6.07;4.50;;;24.80;71.70;;;;;;6104592;28;20433;-81
2021/10/02 13:10:15;;;;;;;4.93;4.10;;;24.90;69.80;;;;;;6118122;28;20069;-83
2021/10/02 13:13:20;;;;;;;6.00;4.45;;;24.80;68.60;;;;;;6106437;29;20103;-86
2021/10/02 13:16:20;;;;;;;5.65;4.18;;;25.00;70.80;;;;;;6118821;29;20566;-84
2021/10/02 13:19:32;;;;;;;5.33;4.83;;;24.90;67.70;;;;;;6106256;28;20035;-85
2021/10/02 13:22:40;;;;;;;7.20;4.50;;;24.90;67.10;;;;;;6122121;28;20035;-83
2021/10/02 13:25:45;;;;;;;5.93;4.45;;;24.80;67.40;;;;;;6136115;29;20120;-84
2021/10/02 13:28:53;;;;;;;6.38;4.47;;;24.80;69.70;;;;;;6105022;29;20019;-83
2021/10/02 13:31:54;;;;;;;8.27;4.68;;;24.70;91.80;;;;;;6117108;29;20030;-84
2021/10/02 13:34:55;;;;;;;7.03;4.47;;;25.00;91.20;;;;;;6115735;29;20035;-83
2021/10/02 13:37:56;;;;;;;7.33;4.10;;;;;;;;;;6116212;29;20077;-82
2021/10/02 13:40:58;;;;;;;6.20;4.73;;;24.30;94.50;;;;;;6149529;29;20023;-81
2021/10/02 13:44:01;;;;;;;5.03;4.25;;;24.60;81.70;;;;;;6117429;29;20027;-85
2021/10/02 13:47:05;;;;;;;7.13;4.70;;;24.80;93.80;;;;;;6116445;29;20023;-87
2021/10/02 13:50:06;;;;;;;8.60;4.28;;;;;;;;;;6116406;29;20105;-84
2021/10/02 13:53:06;;;;;;;4.78;3.90;;;24.90;83.70;;;;;;6116510;29;20066;-84
2021/10/02 13:56:07;;;;;;;7.07;4.87;;;24.90;70.50;;;;;;6114962;29;20061;-80
2021/10/02 13:59:08;;;;;;;6.27;4.60;;;25.00;69.30;;;;;;6116132;29;20042;-80
2021/10/02 14:02:08;;;;;;;5.17;4.67;;;24.90;67.90;;;;;;6149185;29;20027;-83
2021/10/02 14:05:09;;;;;;;6.27;4.30;;;25.00;69.80;;;;;;6116249;29;20035;-80
2021/10/02 14:08:10;;;;;;;9.13;4.97;;;25.00;70.20;;;;;;6115957;29;20377;-81
2021/10/02 14:11:10;;;;;;;7.73;4.73;;;24.90;69.30;;;;;;6131588;29;20046;-80
2021/10/02 14:14:11;;;;;;;15.63;5.50;;;24.90;70.80;;;;;;6129244;29;20039;-81
2021/10/02 14:17:11;;;;;;;5.07;4.17;;;24.70;66.90;;;;;;6113084;29;20039;-80
2021/10/02 14:20:13;;;;;;;5.20;4.03;;;24.50;65.50;;;;;;6131650;29;20035;-80
2021/10/02 14:23:13;;;;;;;5.63;4.53;;;24.10;66.90;;;;;;6115291;29;20090;-79
2021/10/02 14:26:18;;;;;;;8.00;4.73;;;23.80;68.80;;;;;;6131334;29;20290;-79
2021/10/02 14:29:18;;;;;;;5.40;4.75;;;23.60;68.80;;;;;;6131215;29;20761;-81
2021/10/02 14:32:19;;;;;;;5.70;4.50;;;23.50;69.10;;;;;;6099913;29;20081;-79
2021/10/02 14:35:20;;;;;;;4.70;4.17;;;23.50;67.20;;;;;;6131670;29;20039;-80
2021/10/02 14:38:20;;;;;;;6.30;4.27;;;23.40;66.70;;;;;;6099317;29;20039;-80
2021/10/02 14:41:21;;;;;;;5.67;4.23;;;23.40;68.80;;;;;;6113129;28;20039;-81
2021/10/02 14:44:22;;;;;;;7.47;4.40;;;23.40;68.10;;;;;;6114141;29;20485;-82
2021/10/02 14:47:23;;;;;;;12.27;4.83;;;23.40;68.60;;;;;;6148630;29;20077;-80
2021/10/02 14:50:23;;;;;;;8.50;6.65;;;23.20;68.50;;;;;;6148631;29;20279;-80
2021/10/02 14:53:24;;;;;;;5.45;4.18;;;23.20;67.60;;;;;;6115059;29;20055;-80
2021/10/02 14:56:24;;;;;;;5.10;4.43;;;23.20;66.90;;;;;;6099572;29;20050;-81
2021/10/02 14:59:26;;;;;;;5.07;4.57;;;23.20;67.90;;;;;;6130394;29;20034;-83
2021/10/02 15:02:27;;;;;;;5.10;4.57;;;23.20;69.00;;;;;;6115226;29;20024;-85
2021/10/02 15:05:27;;;;;;;13.65;4.70;;;23.20;69.40;;;;;;6098772;29;20070;-81
2021/10/02 15:08:28;;;;;;;6.03;4.13;;;23.00;82.60;;;;;;6114864;29;20024;-83
2021/10/02 15:11:31;;;;;;;5.55;4.30;;;23.20;68.20;;;;;;6130035;29;20034;-81
2021/10/02 15:14:32;;;;;;;6.47;4.30;;;23.90;67.00;;;;;;6102591;29;20035;-80
2021/10/02 15:17:33;;;;;;;8.95;4.70;;;22.90;70.00;;;;;;6126054;29;20047;-80
2021/10/02 15:20:33;;;;;;;8.30;4.47;;;22.90;71.60;;;;;;6109944;29;20038;-80
2021/10/02 15:23:50;;;;;;;4.78;4.28;;;22.90;69.20;;;;;;6128489;29;20027;-79
2021/10/02 15:26:51;;;;;;;6.95;4.18;;;22.90;67.30;;;;;;6115674;29;20086;-79
2021/10/02 15:29:52;;;;;;;9.52;4.55;;;22.90;69.70;;;;;;6114425;29;20019;-80
2021/10/02 15:32:52;;;;;;;8.17;5.07;;;22.80;69.20;;;;;;6109016;29;20070;-82
2021/10/02 15:35:53;;;;;;;7.93;4.80;;;22.90;67.80;;;;;;6092160;29;20031;-79
2021/10/02 15:39:07;;;;;;;4.40;3.93;;;22.80;69.30;;;;;;6093550;29;20050;-80
2021/10/02 15:42:08;;;;;;;8.10;4.88;;;22.70;82.80;;;;;;6144012;29;20291;-79
2021/10/02 15:45:08;;;;;;;9.38;4.25;;;22.80;68.00;;;;;;6107449;29;20035;-78
2021/10/02 15:48:34;;;;;;;8.98;6.05;;;22.50;85.00;;;;;;6111833;29;20127;-76
2021/10/02 15:51:44;;;;;;;8.82;4.15;;;22.60;83.10;;;;;;6121305;29;20031;-78
2021/10/02 15:55:10;;;;;;;5.30;4.55;;;22.50;83.60;;;;;;6117137;29;20451;-77
2021/10/02 15:58:11;;;;;;;13.15;9.35;;;;;;;;;;6129584;29;20047;-77
2021/10/02 16:01:14;;;;;;;9.73;5.88;;;22.50;66.40;;;;;;6129793;29;20398;-77
2021/10/02 16:04:26;;;;;;;5.60;4.68;;;22.50;67.60;;;;;;6114363;29;20382;-77
2021/10/02 16:07:28;;;;;;;6.40;4.70;;;22.50;68.50;;;;;;6146263;29;20027;-78
2021/10/02 16:10:29;;;;;;;5.57;4.25;;;22.50;71.00;;;;;;6112271;29;20015;-77
2021/10/02 16:13:31;;;;;;;5.70;4.28;;;22.40;69.90;;;;;;6113199;29;20054;-78
2021/10/02 16:16:32;;;;;;;9.27;5.82;;;22.40;70.20;;;;;;6129604;29;20050;-79
2021/10/02 16:19:33;;;;;;;5.78;4.70;;;22.40;69.50;;;;;;6129055;29;20117;-78
2021/10/02 16:22:34;;;;;;;5.15;3.85;;;22.30;69.70;;;;;;6146590;29;20082;-80
2021/10/02 16:25:35;;;;;;;4.57;4.07;;;22.20;70.20;;;;;;6128675;29;20497;-82
2021/10/02 16:28:36;;;;;;;4.53;3.97;;;22.10;70.80;;;;;;6113051;29;20027;-80
2021/10/02 16:31:36;;;;;;;5.07;4.55;;;22.10;71.00;;;;;;6129067;29;20039;-80
2021/10/02 17:32:10;;;;;;;7.07;5.55;;;19.20;98.40;;;;;;6390728;27;20439;-81
2021/10/02 17:35:11;;;;;;;6.63;5.47;;;;;;;;;;6358962;27;20038;-82
2021/10/02 17:38:15;;;;;;;7.85;5.93;;;19.00;97.00;;;;;;6347513;27;20063;-81
2021/10/02 17:41:16;;;;;;;6.45;5.85;;;;;;;;;;6330353;27;20062;-81
2021/10/02 17:44:17;;;;;;;6.57;5.88;;;19.00;94.70;;;;;;6353676;27;20076;-78
2021/10/02 17:47:18;;;;;;;8.30;5.72;;;;;;;;;;6371718;27;20051;-81
2021/10/02 17:50:19;;;;;;;6.95;6.25;;;18.60;95.30;;;;;;6329041;27;20126;-85
2021/10/02 17:53:20;;;;;;;11.25;6.03;;;18.30;99.90;;;;;;6312697;27;20027;-83
2021/10/02 17:56:21;;;;;;;9.00;5.93;;;18.10;99.90;;;;;;6344549;28;20911;-83
2021/10/02 17:59:22;;;;;;;7.45;5.57;;;18.30;93.50;;;;;;6328013;28;20030;-83
2021/10/02 18:02:22;;;;;;;8.27;5.60;;;18.20;94.20;;;;;;6329191;28;20327;-83
2021/10/02 18:05:23;;;;;;;6.05;5.05;;;18.10;95.50;;;;;;6311131;28;20088;-83